Bookmark and Share
Track history (hours):
 

Americana

Last reported at 2014-Apr-14 05:31 UTC. Time now 2014-Apr-24 04:08 UTC.
Position N 26°10' E 055°28'.
Warning: this ship's position is 9 days out of date.

Length 229 m; draft 7.2 m.

Type: Ship. MMSI: 636014578.

NotesDate/timePositionNaut miles runAvg speedWind from/ knotsBaromVisibWave heightAir tempDewpointWater temp
2014-Apr-14 05:31N 26°10' E 055°28'10214.7
2014-Apr-13 22:33N 26°09' E 053°34'1312.8
2014-Apr-13 21:33N 26°08' E 053°20'1413.1
2014-Apr-13 20:31N 26°07' E 053°05'2713.2
2014-Apr-13 18:30N 26°05' E 052°35'5212.5
2014-Apr-13 14:18N 25°23' E 052°00'912.4
2014-Apr-13 13:33N 25°18' E 051°52'1211.3
2014-Apr-13 12:30N 25°10' E 051°42'1110.8
2014-Apr-13 11:32N 24°59' E 051°42'6 5.4
2014-Apr-13 10:19N 24°55' E 051°37'4 3.2
2014-Apr-13 09:13N 24°58' E 051°36'0 0.0
2014-Apr-13 08:31N 24°58' E 051°36'0 0.0
2014-Apr-13 03:31N 24°58' E 051°36'0 0.0
2014-Apr-13 02:31N 24°58' E 051°36'0 0.0
2014-Apr-13 00:28N 24°58' E 051°36'0 0.0
2014-Apr-12 23:28N 24°58' E 051°36'0 0.0
2014-Apr-12 22:31N 24°58' E 051°36'0 0.0
2014-Apr-12 21:31N 24°58' E 051°36'0 0.0
2014-Apr-12 20:10N 24°58' E 051°36'0 0.0
2014-Apr-12 19:28N 24°58' E 051°36'0 0.0
2014-Apr-12 18:28N 24°58' E 051°36'0 0.0
2014-Apr-12 17:28N 24°58' E 051°36'0 0.0
2014-Apr-12 14:16N 24°58' E 051°36'0 0.0
2014-Apr-12 13:25N 24°58' E 051°36'0 0.0
2014-Apr-12 12:31N 24°58' E 051°36'0 0.0
2014-Apr-12 10:04N 24°58' E 051°36'0 0.0
2014-Apr-12 09:13N 24°58' E 051°36'0 0.0
2014-Apr-12 08:16N 24°58' E 051°36'0 0.0
2014-Apr-12 07:16N 24°58' E 051°36'0 0.0
2014-Apr-12 06:31N 24°58' E 051°36'0 0.0
2014-Apr-12 05:28N 24°58' E 051°36'0 0.0
2014-Apr-12 04:28N 24°58' E 051°36'0 0.0
2014-Apr-12 03:22N 24°58' E 051°36'0 0.0
2014-Apr-11 05:31N 24°58' E 051°36'0 0.0
2014-Apr-11 04:25N 24°58' E 051°36'0 0.0
2014-Apr-11 01:22N 24°58' E 051°36'0 0.0
2014-Apr-10 13:19N 24°58' E 051°36'0 0.0
2014-Apr-10 12:31N 24°58' E 051°36'3 0.3
2014-Apr-10 01:08N 24°56' E 051°39'0 0.1
2014-Apr-10 00:31N 24°56' E 051°39'0 0.1
2014-Apr-09 23:25N 24°56' E 051°39'0 0.1
2014-Apr-09 22:17N 24°56' E 051°39'0 0.0
2014-Apr-09 21:28N 24°56' E 051°38'0 0.0
2014-Apr-09 19:14N 24°56' E 051°38'0 0.0
2014-Apr-09 18:20N 24°56' E 051°38'0 0.0
2014-Apr-09 16:14N 24°56' E 051°38'0 0.0
2014-Apr-09 15:32N 24°56' E 051°38'0 0.0
2014-Apr-09 14:23N 24°56' E 051°38'0 0.0
2014-Apr-09 13:26N 24°56' E 051°38'0 0.1
2014-Apr-09 12:32N 24°56' E 051°39'0 0.1
2014-Apr-09 11:32N 24°56' E 051°39'0 0.0
2014-Apr-09 04:31N 24°56' E 051°39'0 0.0
2014-Apr-08 23:13N 24°56' E 051°39'0 0.0
2014-Apr-08 11:31N 24°56' E 051°39'0 0.0
2014-Apr-07 15:04N 24°56' E 051°38'0 0.0
2014-Apr-07 14:32N 24°56' E 051°38'0 0.0
2014-Apr-07 13:31N 24°56' E 051°38'0 0.0
2014-Apr-07 12:29N 24°55' E 051°38'0 0.0
2014-Apr-07 11:11N 24°55' E 051°38'0 0.0
2014-Apr-07 10:32N 24°55' E 051°38'0 0.0
2014-Apr-07 09:32N 24°55' E 051°38'0 0.1
2014-Apr-07 08:29N 24°55' E 051°39'0 0.0
2014-Apr-06 21:31N 24°55' E 051°39'0 0.0
2014-Apr-06 20:11N 24°55' E 051°39'0 0.0
2014-Apr-06 17:32N 24°55' E 051°39'0 0.1
2014-Apr-06 16:33N 24°55' E 051°39'0 0.0
2014-Apr-06 15:32N 24°55' E 051°39'0 0.0
2014-Apr-06 14:33N 24°55' E 051°39'0 0.0
2014-Apr-06 13:33N 24°55' E 051°39'0 0.1
2014-Apr-06 12:33N 24°55' E 051°39'4 4.4
2014-Apr-06 11:33N 24°53' E 051°42'12 9.6
2014-Apr-06 10:20N 25°04' E 051°45'911.2
2014-Apr-06 09:29N 25°14' E 051°45'5 0.2
2014-Apr-05 01:05N 25°18' E 051°48'0 0.0
2014-Apr-04 20:08N 25°18' E 051°48'0 0.0
2014-Apr-04 17:11N 25°18' E 051°48'0 0.0
2014-Apr-04 13:32N 25°18' E 051°48'0 0.1
2014-Apr-04 12:32N 25°18' E 051°48'  

Dump ship's entire track history

sailing weather and tide predictions

Americana — A8UZ5 — position and weather